sensor_id;sensor_type;location;lat;lon;timestamp;P1;durP1;ratioP1;P2;durP2;ratioP2
14348;SDS011;7258;50.376;8.742;2024-01-06T00:00:58;9.00;;;3.30;;
14348;SDS011;7258;50.376;8.742;2024-01-06T00:03:02;6.53;;;3.07;;
14348;SDS011;7258;50.376;8.742;2024-01-06T00:05:05;5.27;;;2.80;;
14348;SDS011;7258;50.376;8.742;2024-01-06T00:07:08;6.83;;;3.13;;
14348;SDS011;7258;50.376;8.742;2024-01-06T00:09:12;7.40;;;2.87;;
14348;SDS011;7258;50.376;8.742;2024-01-06T00:11:15;6.20;;;2.87;;
14348;SDS011;7258;50.376;8.742;2024-01-06T00:13:18;6.83;;;2.87;;
14348;SDS011;7258;50.376;8.742;2024-01-06T00:15:21;8.43;;;3.10;;
14348;SDS011;7258;50.376;8.742;2024-01-06T00:17:25;5.37;;;2.73;;
14348;SDS011;7258;50.376;8.742;2024-01-06T00:19:28;6.40;;;2.90;;
14348;SDS011;7258;50.376;8.742;2024-01-06T00:21:32;8.40;;;2.90;;
14348;SDS011;7258;50.376;8.742;2024-01-06T00:23:35;8.27;;;3.10;;
14348;SDS011;7258;50.376;8.742;2024-01-06T00:25:39;6.47;;;3.00;;
14348;SDS011;7258;50.376;8.742;2024-01-06T00:27:43;5.67;;;3.40;;
14348;SDS011;7258;50.376;8.742;2024-01-06T00:29:46;7.53;;;3.03;;
14348;SDS011;7258;50.376;8.742;2024-01-06T00:31:49;7.27;;;3.77;;
14348;SDS011;7258;50.376;8.742;2024-01-06T00:33:53;9.07;;;3.70;;
14348;SDS011;7258;50.376;8.742;2024-01-06T00:35:56;7.17;;;3.30;;
14348;SDS011;7258;50.376;8.742;2024-01-06T00:37:59;5.13;;;3.30;;
14348;SDS011;7258;50.376;8.742;2024-01-06T00:40:03;7.80;;;3.53;;
14348;SDS011;7258;50.376;8.742;2024-01-06T00:42:07;7.23;;;3.67;;
14348;SDS011;7258;50.376;8.742;2024-01-06T00:44:10;6.50;;;3.50;;
14348;SDS011;7258;50.376;8.742;2024-01-06T00:46:14;6.17;;;3.57;;
14348;SDS011;7258;50.376;8.742;2024-01-06T00:48:16;5.33;;;3.63;;
14348;SDS011;7258;50.376;8.742;2024-01-06T00:50:19;7.93;;;4.13;;
14348;SDS011;7258;50.376;8.742;2024-01-06T00:52:22;15.17;;;4.20;;
14348;SDS011;7258;50.376;8.742;2024-01-06T00:54:25;5.83;;;4.00;;
14348;SDS011;7258;50.376;8.742;2024-01-06T00:56:28;9.97;;;3.90;;
14348;SDS011;7258;50.376;8.742;2024-01-06T00:58:32;5.63;;;3.47;;
14348;SDS011;7258;50.376;8.742;2024-01-06T01:00:34;8.03;;;4.10;;
14348;SDS011;7258;50.376;8.742;2024-01-06T01:02:38;7.83;;;4.30;;
14348;SDS011;7258;50.376;8.742;2024-01-06T01:04:41;5.50;;;3.40;;
14348;SDS011;7258;50.376;8.742;2024-01-06T01:06:44;5.27;;;3.70;;
14348;SDS011;7258;50.376;8.742;2024-01-06T01:08:47;4.90;;;3.47;;
14348;SDS011;7258;50.376;8.742;2024-01-06T01:10:50;8.30;;;3.80;;
14348;SDS011;7258;50.376;8.742;2024-01-06T01:12:54;7.57;;;3.70;;
14348;SDS011;7258;50.376;8.742;2024-01-06T01:14:58;6.50;;;3.77;;
14348;SDS011;7258;50.376;8.742;2024-01-06T01:17:02;8.10;;;4.07;;
14348;SDS011;7258;50.376;8.742;2024-01-06T01:19:05;7.37;;;4.03;;
14348;SDS011;7258;50.376;8.742;2024-01-06T01:21:08;8.60;;;3.70;;
14348;SDS011;7258;50.376;8.742;2024-01-06T01:23:12;5.73;;;3.73;;
14348;SDS011;7258;50.376;8.742;2024-01-06T01:25:15;8.73;;;3.57;;
14348;SDS011;7258;50.376;8.742;2024-01-06T01:27:18;6.70;;;3.57;;
14348;SDS011;7258;50.376;8.742;2024-01-06T01:29:22;6.70;;;3.60;;
14348;SDS011;7258;50.376;8.742;2024-01-06T01:31:26;10.27;;;4.03;;
14348;SDS011;7258;50.376;8.742;2024-01-06T01:33:30;8.57;;;3.63;;
14348;SDS011;7258;50.376;8.742;2024-01-06T01:35:33;4.97;;;3.17;;
14348;SDS011;7258;50.376;8.742;2024-01-06T01:37:36;8.93;;;3.37;;
14348;SDS011;7258;50.376;8.742;2024-01-06T01:39:39;5.47;;;3.40;;
14348;SDS011;7258;50.376;8.742;2024-01-06T01:41:42;8.23;;;3.37;;
14348;SDS011;7258;50.376;8.742;2024-01-06T01:43:46;8.93;;;3.70;;
14348;SDS011;7258;50.376;8.742;2024-01-06T01:45:50;6.53;;;3.73;;
14348;SDS011;7258;50.376;8.742;2024-01-06T01:47:55;9.13;;;4.37;;
14348;SDS011;7258;50.376;8.742;2024-01-06T01:49:58;7.70;;;4.63;;
14348;SDS011;7258;50.376;8.742;2024-01-06T01:52:02;7.23;;;4.23;;
14348;SDS011;7258;50.376;8.742;2024-01-06T01:54:05;8.23;;;4.50;;
14348;SDS011;7258;50.376;8.742;2024-01-06T01:56:09;8.87;;;4.73;;
14348;SDS011;7258;50.376;8.742;2024-01-06T01:58:12;9.33;;;4.60;;
14348;SDS011;7258;50.376;8.742;2024-01-06T02:00:17;7.20;;;4.50;;
14348;SDS011;7258;50.376;8.742;2024-01-06T02:02:20;8.87;;;4.90;;
14348;SDS011;7258;50.376;8.742;2024-01-06T02:04:25;8.97;;;4.80;;
14348;SDS011;7258;50.376;8.742;2024-01-06T02:06:28;9.87;;;5.20;;
14348;SDS011;7258;50.376;8.742;2024-01-06T02:08:32;7.60;;;4.43;;
14348;SDS011;7258;50.376;8.742;2024-01-06T02:10:35;7.93;;;4.60;;
14348;SDS011;7258;50.376;8.742;2024-01-06T02:12:37;8.63;;;4.40;;
14348;SDS011;7258;50.376;8.742;2024-01-06T02:14:40;8.47;;;5.10;;
14348;SDS011;7258;50.376;8.742;2024-01-06T02:16:44;5.97;;;4.40;;
14348;SDS011;7258;50.376;8.742;2024-01-06T02:18:47;7.93;;;4.37;;
14348;SDS011;7258;50.376;8.742;2024-01-06T02:20:52;7.87;;;4.50;;
14348;SDS011;7258;50.376;8.742;2024-01-06T02:22:58;8.33;;;4.43;;
14348;SDS011;7258;50.376;8.742;2024-01-06T02:25:02;8.43;;;4.60;;
14348;SDS011;7258;50.376;8.742;2024-01-06T02:27:08;10.13;;;4.40;;
14348;SDS011;7258;50.376;8.742;2024-01-06T02:29:11;6.80;;;4.20;;
14348;SDS011;7258;50.376;8.742;2024-01-06T02:31:15;6.23;;;4.30;;
14348;SDS011;7258;50.376;8.742;2024-01-06T02:33:19;6.90;;;4.70;;
14348;SDS011;7258;50.376;8.742;2024-01-06T02:35:21;7.63;;;4.10;;
14348;SDS011;7258;50.376;8.742;2024-01-06T02:37:25;8.13;;;4.63;;
14348;SDS011;7258;50.376;8.742;2024-01-06T02:39:29;9.37;;;4.47;;
14348;SDS011;7258;50.376;8.742;2024-01-06T02:41:32;8.00;;;4.30;;
14348;SDS011;7258;50.376;8.742;2024-01-06T02:43:35;9.47;;;4.63;;
14348;SDS011;7258;50.376;8.742;2024-01-06T02:45:39;6.73;;;4.30;;
14348;SDS011;7258;50.376;8.742;2024-01-06T02:47:42;6.50;;;4.30;;
14348;SDS011;7258;50.376;8.742;2024-01-06T02:49:45;10.47;;;4.80;;
14348;SDS011;7258;50.376;8.742;2024-01-06T02:51:48;7.37;;;4.20;;
14348;SDS011;7258;50.376;8.742;2024-01-06T02:53:51;8.27;;;4.20;;
14348;SDS011;7258;50.376;8.742;2024-01-06T02:55:55;12.43;;;4.50;;
14348;SDS011;7258;50.376;8.742;2024-01-06T02:57:58;7.53;;;4.03;;
14348;SDS011;7258;50.376;8.742;2024-01-06T03:00:01;7.77;;;4.37;;
14348;SDS011;7258;50.376;8.742;2024-01-06T03:02:05;8.60;;;4.43;;
14348;SDS011;7258;50.376;8.742;2024-01-06T03:04:08;7.30;;;4.37;;
14348;SDS011;7258;50.376;8.742;2024-01-06T03:06:10;7.47;;;4.20;;
14348;SDS011;7258;50.376;8.742;2024-01-06T03:08:13;10.63;;;4.63;;
14348;SDS011;7258;50.376;8.742;2024-01-06T03:10:17;5.43;;;3.80;;
14348;SDS011;7258;50.376;8.742;2024-01-06T03:12:21;6.23;;;4.03;;
14348;SDS011;7258;50.376;8.742;2024-01-06T03:14:25;6.27;;;4.03;;
14348;SDS011;7258;50.376;8.742;2024-01-06T03:16:28;6.23;;;4.20;;
14348;SDS011;7258;50.376;8.742;2024-01-06T03:18:31;6.83;;;3.73;;
14348;SDS011;7258;50.376;8.742;2024-01-06T03:20:34;7.07;;;4.13;;
14348;SDS011;7258;50.376;8.742;2024-01-06T03:22:37;8.77;;;3.70;;
14348;SDS011;7258;50.376;8.742;2024-01-06T03:24:41;8.53;;;4.13;;
14348;SDS011;7258;50.376;8.742;2024-01-06T03:26:43;7.47;;;4.20;;
14348;SDS011;7258;50.376;8.742;2024-01-06T03:28:48;4.53;;;3.23;;
14348;SDS011;7258;50.376;8.742;2024-01-06T03:30:52;8.87;;;4.17;;
14348;SDS011;7258;50.376;8.742;2024-01-06T03:32:55;5.57;;;3.70;;
14348;SDS011;7258;50.376;8.742;2024-01-06T03:34:58;8.77;;;4.37;;
14348;SDS011;7258;50.376;8.742;2024-01-06T03:37:00;8.73;;;4.47;;
14348;SDS011;7258;50.376;8.742;2024-01-06T03:39:03;6.83;;;3.87;;
14348;SDS011;7258;50.376;8.742;2024-01-06T03:41:07;7.10;;;3.77;;
14348;SDS011;7258;50.376;8.742;2024-01-06T03:43:10;5.93;;;4.13;;
14348;SDS011;7258;50.376;8.742;2024-01-06T03:45:14;8.13;;;4.53;;
14348;SDS011;7258;50.376;8.742;2024-01-06T03:47:17;5.73;;;3.83;;
14348;SDS011;7258;50.376;8.742;2024-01-06T03:49:20;9.10;;;3.90;;
14348;SDS011;7258;50.376;8.742;2024-01-06T03:51:24;6.43;;;3.90;;
14348;SDS011;7258;50.376;8.742;2024-01-06T03:53:27;6.10;;;4.17;;
14348;SDS011;7258;50.376;8.742;2024-01-06T03:55:30;8.37;;;4.40;;
14348;SDS011;7258;50.376;8.742;2024-01-06T03:57:33;7.93;;;4.03;;
14348;SDS011;7258;50.376;8.742;2024-01-06T03:59:36;7.63;;;4.40;;
14348;SDS011;7258;50.376;8.742;2024-01-06T04:01:40;7.67;;;3.97;;
14348;SDS011;7258;50.376;8.742;2024-01-06T04:03:42;7.27;;;4.40;;
14348;SDS011;7258;50.376;8.742;2024-01-06T04:05:46;7.20;;;4.23;;
14348;SDS011;7258;50.376;8.742;2024-01-06T04:07:49;6.17;;;4.23;;
14348;SDS011;7258;50.376;8.742;2024-01-06T04:09:52;8.53;;;4.20;;
14348;SDS011;7258;50.376;8.742;2024-01-06T04:11:55;8.17;;;4.27;;
14348;SDS011;7258;50.376;8.742;2024-01-06T04:13:58;9.60;;;4.20;;
14348;SDS011;7258;50.376;8.742;2024-01-06T04:16:02;9.23;;;4.30;;
14348;SDS011;7258;50.376;8.742;2024-01-06T04:18:07;4.70;;;3.70;;
14348;SDS011;7258;50.376;8.742;2024-01-06T04:20:11;8.40;;;4.43;;
14348;SDS011;7258;50.376;8.742;2024-01-06T04:22:14;7.83;;;4.53;;
14348;SDS011;7258;50.376;8.742;2024-01-06T04:24:17;7.43;;;4.00;;
14348;SDS011;7258;50.376;8.742;2024-01-06T04:26:21;6.20;;;3.93;;
14348;SDS011;7258;50.376;8.742;2024-01-06T04:28:23;7.87;;;4.30;;
14348;SDS011;7258;50.376;8.742;2024-01-06T04:30:27;5.80;;;4.27;;
14348;SDS011;7258;50.376;8.742;2024-01-06T04:32:29;9.87;;;4.60;;
14348;SDS011;7258;50.376;8.742;2024-01-06T04:34:33;8.33;;;4.30;;
14348;SDS011;7258;50.376;8.742;2024-01-06T04:36:37;8.40;;;4.53;;
14348;SDS011;7258;50.376;8.742;2024-01-06T04:38:40;8.27;;;4.90;;
14348;SDS011;7258;50.376;8.742;2024-01-06T04:40:43;8.00;;;5.27;;
14348;SDS011;7258;50.376;8.742;2024-01-06T04:42:46;7.90;;;4.67;;
14348;SDS011;7258;50.376;8.742;2024-01-06T04:44:50;7.53;;;4.80;;
14348;SDS011;7258;50.376;8.742;2024-01-06T04:46:53;8.73;;;5.10;;
14348;SDS011;7258;50.376;8.742;2024-01-06T04:48:56;8.33;;;4.43;;
14348;SDS011;7258;50.376;8.742;2024-01-06T04:51:01;7.57;;;5.30;;
14348;SDS011;7258;50.376;8.742;2024-01-06T04:53:04;12.60;;;4.77;;
14348;SDS011;7258;50.376;8.742;2024-01-06T04:55:07;6.97;;;4.67;;
14348;SDS011;7258;50.376;8.742;2024-01-06T04:57:11;7.00;;;4.70;;
14348;SDS011;7258;50.376;8.742;2024-01-06T04:59:14;8.30;;;4.80;;
14348;SDS011;7258;50.376;8.742;2024-01-06T05:01:17;8.37;;;4.40;;
14348;SDS011;7258;50.376;8.742;2024-01-06T05:03:20;7.73;;;4.67;;
14348;SDS011;7258;50.376;8.742;2024-01-06T05:05:22;8.40;;;4.63;;
14348;SDS011;7258;50.376;8.742;2024-01-06T05:07:27;8.73;;;4.87;;
14348;SDS011;7258;50.376;8.742;2024-01-06T05:09:30;9.20;;;4.03;;
14348;SDS011;7258;50.376;8.742;2024-01-06T05:11:33;6.53;;;4.67;;
14348;SDS011;7258;50.376;8.742;2024-01-06T05:13:36;6.23;;;4.17;;
14348;SDS011;7258;50.376;8.742;2024-01-06T05:15:39;7.63;;;4.10;;
14348;SDS011;7258;50.376;8.742;2024-01-06T05:17:42;6.13;;;4.30;;
14348;SDS011;7258;50.376;8.742;2024-01-06T05:19:45;7.67;;;4.47;;
14348;SDS011;7258;50.376;8.742;2024-01-06T05:21:48;7.90;;;4.57;;
14348;SDS011;7258;50.376;8.742;2024-01-06T05:23:53;7.87;;;4.77;;
14348;SDS011;7258;50.376;8.742;2024-01-06T05:25:56;6.07;;;4.00;;
14348;SDS011;7258;50.376;8.742;2024-01-06T05:27:58;10.27;;;5.37;;
14348;SDS011;7258;50.376;8.742;2024-01-06T05:30:02;9.17;;;4.90;;
14348;SDS011;7258;50.376;8.742;2024-01-06T05:32:05;10.50;;;5.20;;
14348;SDS011;7258;50.376;8.742;2024-01-06T05:34:09;10.47;;;4.90;;
14348;SDS011;7258;50.376;8.742;2024-01-06T05:36:12;9.00;;;5.07;;
14348;SDS011;7258;50.376;8.742;2024-01-06T05:38:15;8.47;;;4.40;;
14348;SDS011;7258;50.376;8.742;2024-01-06T05:40:20;6.70;;;4.50;;
14348;SDS011;7258;50.376;8.742;2024-01-06T05:42:22;8.17;;;5.13;;
14348;SDS011;7258;50.376;8.742;2024-01-06T05:44:26;6.93;;;4.70;;
14348;SDS011;7258;50.376;8.742;2024-01-06T05:46:29;9.10;;;5.03;;
14348;SDS011;7258;50.376;8.742;2024-01-06T05:48:33;8.43;;;4.73;;
14348;SDS011;7258;50.376;8.742;2024-01-06T05:50:37;11.50;;;4.77;;
14348;SDS011;7258;50.376;8.742;2024-01-06T05:52:40;7.10;;;4.50;;
14348;SDS011;7258;50.376;8.742;2024-01-06T05:54:43;9.00;;;4.80;;
14348;SDS011;7258;50.376;8.742;2024-01-06T05:56:48;12.40;;;4.50;;
14348;SDS011;7258;50.376;8.742;2024-01-06T05:58:51;7.30;;;4.23;;
14348;SDS011;7258;50.376;8.742;2024-01-06T06:00:55;5.30;;;3.97;;
14348;SDS011;7258;50.376;8.742;2024-01-06T06:02:59;7.93;;;4.80;;
14348;SDS011;7258;50.376;8.742;2024-01-06T06:05:02;4.17;;;3.63;;
14348;SDS011;7258;50.376;8.742;2024-01-06T06:07:06;7.90;;;4.73;;
14348;SDS011;7258;50.376;8.742;2024-01-06T06:09:09;8.73;;;4.40;;
14348;SDS011;7258;50.376;8.742;2024-01-06T06:11:12;7.23;;;4.40;;
14348;SDS011;7258;50.376;8.742;2024-01-06T06:13:16;5.87;;;4.10;;
14348;SDS011;7258;50.376;8.742;2024-01-06T06:15:20;7.90;;;4.50;;
14348;SDS011;7258;50.376;8.742;2024-01-06T06:17:23;8.57;;;4.20;;
14348;SDS011;7258;50.376;8.742;2024-01-06T06:19:26;7.77;;;4.50;;
14348;SDS011;7258;50.376;8.742;2024-01-06T06:21:30;5.97;;;4.33;;
14348;SDS011;7258;50.376;8.742;2024-01-06T06:23:32;6.83;;;4.53;;
14348;SDS011;7258;50.376;8.742;2024-01-06T06:25:36;9.20;;;5.10;;
14348;SDS011;7258;50.376;8.742;2024-01-06T06:27:39;4.93;;;4.43;;
14348;SDS011;7258;50.376;8.742;2024-01-06T06:29:44;8.17;;;4.50;;
14348;SDS011;7258;50.376;8.742;2024-01-06T06:31:48;5.70;;;4.30;;
14348;SDS011;7258;50.376;8.742;2024-01-06T06:33:51;8.63;;;4.77;;
14348;SDS011;7258;50.376;8.742;2024-01-06T06:35:55;7.67;;;4.50;;
14348;SDS011;7258;50.376;8.742;2024-01-06T06:37:58;6.60;;;4.93;;
14348;SDS011;7258;50.376;8.742;2024-01-06T06:40:01;7.70;;;4.77;;
14348;SDS011;7258;50.376;8.742;2024-01-06T06:42:05;7.80;;;4.90;;
14348;SDS011;7258;50.376;8.742;2024-01-06T06:44:08;8.77;;;5.00;;
14348;SDS011;7258;50.376;8.742;2024-01-06T06:46:13;7.47;;;4.87;;
14348;SDS011;7258;50.376;8.742;2024-01-06T06:48:15;6.57;;;5.00;;
14348;SDS011;7258;50.376;8.742;2024-01-06T06:50:18;8.10;;;4.63;;
14348;SDS011;7258;50.376;8.742;2024-01-06T06:52:21;7.37;;;4.40;;
14348;SDS011;7258;50.376;8.742;2024-01-06T06:54:25;7.80;;;4.30;;
14348;SDS011;7258;50.376;8.742;2024-01-06T06:56:28;10.77;;;4.87;;
14348;SDS011;7258;50.376;8.742;2024-01-06T06:58:31;7.23;;;4.40;;
14348;SDS011;7258;50.376;8.742;2024-01-06T07:00:34;5.80;;;4.57;;
14348;SDS011;7258;50.376;8.742;2024-01-06T07:02:39;6.07;;;5.00;;
14348;SDS011;7258;50.376;8.742;2024-01-06T07:04:43;7.00;;;4.20;;
14348;SDS011;7258;50.376;8.742;2024-01-06T07:06:47;6.73;;;4.50;;
14348;SDS011;7258;50.376;8.742;2024-01-06T07:08:49;7.13;;;5.37;;
14348;SDS011;7258;50.376;8.742;2024-01-06T07:10:52;6.97;;;4.60;;
14348;SDS011;7258;50.376;8.742;2024-01-06T07:12:56;8.07;;;4.03;;
14348;SDS011;7258;50.376;8.742;2024-01-06T07:14:59;6.13;;;4.17;;
14348;SDS011;7258;50.376;8.742;2024-01-06T07:17:06;7.37;;;4.53;;
14348;SDS011;7258;50.376;8.742;2024-01-06T07:19:11;6.47;;;4.93;;
14348;SDS011;7258;50.376;8.742;2024-01-06T07:21:15;9.77;;;4.70;;
14348;SDS011;7258;50.376;8.742;2024-01-06T07:23:18;4.93;;;4.37;;
14348;SDS011;7258;50.376;8.742;2024-01-06T07:25:21;7.93;;;4.57;;
14348;SDS011;7258;50.376;8.742;2024-01-06T07:27:24;7.17;;;4.67;;
14348;SDS011;7258;50.376;8.742;2024-01-06T07:29:27;7.33;;;4.37;;
14348;SDS011;7258;50.376;8.742;2024-01-06T07:31:31;8.57;;;4.60;;
14348;SDS011;7258;50.376;8.742;2024-01-06T07:33:34;8.93;;;4.33;;
14348;SDS011;7258;50.376;8.742;2024-01-06T07:35:39;9.97;;;4.90;;
14348;SDS011;7258;50.376;8.742;2024-01-06T07:37:44;6.93;;;4.63;;
14348;SDS011;7258;50.376;8.742;2024-01-06T07:39:47;9.47;;;4.90;;
14348;SDS011;7258;50.376;8.742;2024-01-06T07:41:51;8.13;;;4.70;;
14348;SDS011;7258;50.376;8.742;2024-01-06T07:43:54;8.17;;;4.93;;
14348;SDS011;7258;50.376;8.742;2024-01-06T07:45:57;10.93;;;4.53;;
14348;SDS011;7258;50.376;8.742;2024-01-06T07:48:01;8.87;;;4.40;;
14348;SDS011;7258;50.376;8.742;2024-01-06T07:50:04;6.53;;;4.60;;
14348;SDS011;7258;50.376;8.742;2024-01-06T07:52:11;9.30;;;4.70;;
14348;SDS011;7258;50.376;8.742;2024-01-06T07:54:14;6.73;;;4.50;;
14348;SDS011;7258;50.376;8.742;2024-01-06T07:56:18;7.10;;;4.50;;
14348;SDS011;7258;50.376;8.742;2024-01-06T07:58:21;7.80;;;4.07;;
14348;SDS011;7258;50.376;8.742;2024-01-06T08:00:24;9.17;;;4.40;;
14348;SDS011;7258;50.376;8.742;2024-01-06T08:02:27;7.20;;;4.53;;
14348;SDS011;7258;50.376;8.742;2024-01-06T08:04:30;7.20;;;4.23;;
14348;SDS011;7258;50.376;8.742;2024-01-06T08:06:34;8.27;;;4.70;;
14348;SDS011;7258;50.376;8.742;2024-01-06T08:08:39;6.73;;;4.43;;
14348;SDS011;7258;50.376;8.742;2024-01-06T08:10:42;6.37;;;4.30;;
14348;SDS011;7258;50.376;8.742;2024-01-06T08:12:44;9.53;;;4.33;;
14348;SDS011;7258;50.376;8.742;2024-01-06T08:14:48;7.40;;;4.07;;
14348;SDS011;7258;50.376;8.742;2024-01-06T08:16:51;7.50;;;4.73;;
14348;SDS011;7258;50.376;8.742;2024-01-06T08:18:54;5.63;;;4.10;;
14348;SDS011;7258;50.376;8.742;2024-01-06T08:20:57;8.37;;;4.23;;
14348;SDS011;7258;50.376;8.742;2024-01-06T08:23:00;6.97;;;4.70;;
14348;SDS011;7258;50.376;8.742;2024-01-06T08:25:05;9.60;;;4.73;;
14348;SDS011;7258;50.376;8.742;2024-01-06T08:27:09;8.57;;;4.50;;
14348;SDS011;7258;50.376;8.742;2024-01-06T08:29:12;8.37;;;4.37;;
14348;SDS011;7258;50.376;8.742;2024-01-06T08:31:17;13.20;;;5.00;;
14348;SDS011;7258;50.376;8.742;2024-01-06T08:33:21;10.87;;;4.87;;
14348;SDS011;7258;50.376;8.742;2024-01-06T08:35:24;11.17;;;4.50;;
14348;SDS011;7258;50.376;8.742;2024-01-06T08:37:27;8.53;;;4.43;;
14348;SDS011;7258;50.376;8.742;2024-01-06T08:39:30;9.30;;;4.60;;
14348;SDS011;7258;50.376;8.742;2024-01-06T08:41:34;6.83;;;4.53;;
14348;SDS011;7258;50.376;8.742;2024-01-06T08:43:37;7.87;;;4.40;;
14348;SDS011;7258;50.376;8.742;2024-01-06T08:45:40;6.83;;;4.50;;
14348;SDS011;7258;50.376;8.742;2024-01-06T08:47:44;8.53;;;4.73;;
14348;SDS011;7258;50.376;8.742;2024-01-06T08:49:47;6.87;;;4.20;;
14348;SDS011;7258;50.376;8.742;2024-01-06T08:51:51;6.70;;;4.37;;
14348;SDS011;7258;50.376;8.742;2024-01-06T08:53:54;9.33;;;4.73;;
14348;SDS011;7258;50.376;8.742;2024-01-06T08:55:58;6.57;;;4.93;;
14348;SDS011;7258;50.376;8.742;2024-01-06T08:58:02;8.30;;;4.80;;
14348;SDS011;7258;50.376;8.742;2024-01-06T09:00:07;7.07;;;5.10;;
14348;SDS011;7258;50.376;8.742;2024-01-06T09:02:12;8.17;;;4.80;;
14348;SDS011;7258;50.376;8.742;2024-01-06T09:04:15;6.53;;;4.77;;
14348;SDS011;7258;50.376;8.742;2024-01-06T09:06:18;8.23;;;4.43;;
14348;SDS011;7258;50.376;8.742;2024-01-06T09:08:22;8.60;;;4.40;;
14348;SDS011;7258;50.376;8.742;2024-01-06T09:10:25;9.63;;;4.87;;
14348;SDS011;7258;50.376;8.742;2024-01-06T09:12:30;8.30;;;5.07;;
14348;SDS011;7258;50.376;8.742;2024-01-06T09:14:34;9.43;;;4.87;;
14348;SDS011;7258;50.376;8.742;2024-01-06T09:16:36;10.43;;;4.90;;
14348;SDS011;7258;50.376;8.742;2024-01-06T09:18:40;8.23;;;4.63;;
14348;SDS011;7258;50.376;8.742;2024-01-06T09:20:43;8.97;;;4.90;;
14348;SDS011;7258;50.376;8.742;2024-01-06T09:22:48;9.80;;;4.87;;
14348;SDS011;7258;50.376;8.742;2024-01-06T09:24:52;9.03;;;4.97;;
14348;SDS011;7258;50.376;8.742;2024-01-06T09:26:56;7.53;;;4.63;;
14348;SDS011;7258;50.376;8.742;2024-01-06T09:28:59;7.80;;;4.93;;
14348;SDS011;7258;50.376;8.742;2024-01-06T09:31:04;7.07;;;5.30;;
14348;SDS011;7258;50.376;8.742;2024-01-06T09:33:07;11.80;;;5.90;;
14348;SDS011;7258;50.376;8.742;2024-01-06T09:35:10;9.23;;;5.50;;
14348;SDS011;7258;50.376;8.742;2024-01-06T09:37:14;6.00;;;4.93;;
14348;SDS011;7258;50.376;8.742;2024-01-06T09:39:16;8.57;;;5.17;;
14348;SDS011;7258;50.376;8.742;2024-01-06T09:41:19;8.77;;;5.13;;
14348;SDS011;7258;50.376;8.742;2024-01-06T09:43:22;6.70;;;5.57;;
14348;SDS011;7258;50.376;8.742;2024-01-06T09:45:26;10.83;;;5.13;;
14348;SDS011;7258;50.376;8.742;2024-01-06T09:47:31;7.53;;;5.47;;
14348;SDS011;7258;50.376;8.742;2024-01-06T09:49:36;8.30;;;4.80;;
14348;SDS011;7258;50.376;8.742;2024-01-06T09:51:44;8.67;;;4.70;;
14348;SDS011;7258;50.376;8.742;2024-01-06T09:53:52;9.03;;;5.27;;
14348;SDS011;7258;50.376;8.742;2024-01-06T09:56:00;11.23;;;5.27;;
14348;SDS011;7258;50.376;8.742;2024-01-06T09:58:04;9.30;;;5.10;;
14348;SDS011;7258;50.376;8.742;2024-01-06T10:00:08;11.70;;;5.33;;
14348;SDS011;7258;50.376;8.742;2024-01-06T10:02:12;9.20;;;4.90;;
14348;SDS011;7258;50.376;8.742;2024-01-06T10:04:18;6.77;;;4.63;;
14348;SDS011;7258;50.376;8.742;2024-01-06T10:06:25;7.60;;;5.10;;
14348;SDS011;7258;50.376;8.742;2024-01-06T10:08:29;10.43;;;5.30;;
14348;SDS011;7258;50.376;8.742;2024-01-06T10:10:33;8.37;;;5.17;;
14348;SDS011;7258;50.376;8.742;2024-01-06T10:12:37;6.83;;;5.47;;
14348;SDS011;7258;50.376;8.742;2024-01-06T10:14:39;14.57;;;5.47;;
14348;SDS011;7258;50.376;8.742;2024-01-06T10:16:43;8.23;;;5.30;;
14348;SDS011;7258;50.376;8.742;2024-01-06T10:18:46;8.40;;;4.90;;
14348;SDS011;7258;50.376;8.742;2024-01-06T10:20:55;8.07;;;5.30;;
14348;SDS011;7258;50.376;8.742;2024-01-06T10:23:01;7.33;;;5.43;;
14348;SDS011;7258;50.376;8.742;2024-01-06T10:25:06;7.83;;;5.03;;
14348;SDS011;7258;50.376;8.742;2024-01-06T10:27:10;9.40;;;5.50;;
14348;SDS011;7258;50.376;8.742;2024-01-06T10:29:13;10.30;;;5.70;;
14348;SDS011;7258;50.376;8.742;2024-01-06T10:31:17;7.13;;;5.47;;
14348;SDS011;7258;50.376;8.742;2024-01-06T10:33:21;8.90;;;5.70;;
14348;SDS011;7258;50.376;8.742;2024-01-06T10:35:24;11.30;;;5.80;;
14348;SDS011;7258;50.376;8.742;2024-01-06T10:37:28;11.30;;;5.50;;
14348;SDS011;7258;50.376;8.742;2024-01-06T10:39:32;7.60;;;5.10;;
14348;SDS011;7258;50.376;8.742;2024-01-06T10:41:38;6.50;;;5.43;;
14348;SDS011;7258;50.376;8.742;2024-01-06T10:43:40;8.60;;;5.70;;
14348;SDS011;7258;50.376;8.742;2024-01-06T10:45:45;8.57;;;5.60;;
14348;SDS011;7258;50.376;8.742;2024-01-06T10:47:48;9.17;;;5.60;;
14348;SDS011;7258;50.376;8.742;2024-01-06T10:49:52;9.27;;;5.73;;
14348;SDS011;7258;50.376;8.742;2024-01-06T10:52:02;10.03;;;6.10;;
14348;SDS011;7258;50.376;8.742;2024-01-06T10:54:07;7.70;;;5.20;;
14348;SDS011;7258;50.376;8.742;2024-01-06T10:56:11;8.97;;;5.67;;
14348;SDS011;7258;50.376;8.742;2024-01-06T10:58:15;7.30;;;5.50;;
14348;SDS011;7258;50.376;8.742;2024-01-06T11:00:18;10.40;;;5.67;;
14348;SDS011;7258;50.376;8.742;2024-01-06T11:02:21;7.13;;;6.13;;
14348;SDS011;7258;50.376;8.742;2024-01-06T11:04:26;9.97;;;6.23;;
14348;SDS011;7258;50.376;8.742;2024-01-06T11:06:29;12.83;;;7.00;;
14348;SDS011;7258;50.376;8.742;2024-01-06T11:08:40;11.17;;;7.87;;
14348;SDS011;7258;50.376;8.742;2024-01-06T11:10:52;14.33;;;7.40;;
14348;SDS011;7258;50.376;8.742;2024-01-06T11:17:50;9.50;;;7.87;;
14348;SDS011;7258;50.376;8.742;2024-01-06T11:20:04;12.77;;;7.53;;
14348;SDS011;7258;50.376;8.742;2024-01-06T11:22:20;10.83;;;7.13;;
14348;SDS011;7258;50.376;8.742;2024-01-06T11:24:23;12.77;;;7.60;;
14348;SDS011;7258;50.376;8.742;2024-01-06T11:26:29;12.00;;;7.73;;
14348;SDS011;7258;50.376;8.742;2024-01-06T11:28:38;9.20;;;6.80;;
14348;SDS011;7258;50.376;8.742;2024-01-06T11:30:45;11.27;;;7.27;;
14348;SDS011;7258;50.376;8.742;2024-01-06T11:32:55;12.50;;;7.07;;
14348;SDS011;7258;50.376;8.742;2024-01-06T11:35:04;9.17;;;7.30;;
14348;SDS011;7258;50.376;8.742;2024-01-06T11:37:07;12.60;;;7.07;;
14348;SDS011;7258;50.376;8.742;2024-01-06T11:43:51;10.97;;;6.47;;
14348;SDS011;7258;50.376;8.742;2024-01-06T11:45:54;8.73;;;6.23;;
14348;SDS011;7258;50.376;8.742;2024-01-06T11:48:02;8.67;;;6.30;;
14348;SDS011;7258;50.376;8.742;2024-01-06T11:50:06;8.73;;;5.97;;
14348;SDS011;7258;50.376;8.742;2024-01-06T11:52:09;8.13;;;5.90;;
14348;SDS011;7258;50.376;8.742;2024-01-06T11:54:12;6.63;;;5.50;;
14348;SDS011;7258;50.376;8.742;2024-01-06T11:56:15;8.77;;;6.33;;
14348;SDS011;7258;50.376;8.742;2024-01-06T11:58:23;8.17;;;5.97;;
14348;SDS011;7258;50.376;8.742;2024-01-06T12:00:28;10.60;;;6.33;;
14348;SDS011;7258;50.376;8.742;2024-01-06T12:02:30;7.60;;;5.27;;
14348;SDS011;7258;50.376;8.742;2024-01-06T12:04:33;8.40;;;5.33;;
14348;SDS011;7258;50.376;8.742;2024-01-06T12:06:35;11.00;;;6.70;;
14348;SDS011;7258;50.376;8.742;2024-01-06T12:08:39;8.80;;;6.70;;
14348;SDS011;7258;50.376;8.742;2024-01-06T12:10:43;11.97;;;7.00;;
14348;SDS011;7258;50.376;8.742;2024-01-06T12:12:54;9.63;;;7.07;;
14348;SDS011;7258;50.376;8.742;2024-01-06T12:14:57;11.60;;;7.57;;
14348;SDS011;7258;50.376;8.742;2024-01-06T12:17:02;14.17;;;7.33;;
14348;SDS011;7258;50.376;8.742;2024-01-06T12:19:06;8.30;;;6.70;;
14348;SDS011;7258;50.376;8.742;2024-01-06T12:21:10;8.00;;;6.40;;
14348;SDS011;7258;50.376;8.742;2024-01-06T12:23:23;9.70;;;6.87;;
14348;SDS011;7258;50.376;8.742;2024-01-06T12:25:26;9.90;;;6.23;;
14348;SDS011;7258;50.376;8.742;2024-01-06T12:27:30;6.60;;;6.00;;
14348;SDS011;7258;50.376;8.742;2024-01-06T12:29:33;8.43;;;5.77;;
14348;SDS011;7258;50.376;8.742;2024-01-06T12:31:35;10.77;;;6.70;;
14348;SDS011;7258;50.376;8.742;2024-01-06T12:33:42;9.70;;;7.00;;
14348;SDS011;7258;50.376;8.742;2024-01-06T12:35:45;11.00;;;7.10;;
14348;SDS011;7258;50.376;8.742;2024-01-06T12:37:49;8.83;;;6.50;;
14348;SDS011;7258;50.376;8.742;2024-01-06T12:39:52;10.10;;;7.17;;
14348;SDS011;7258;50.376;8.742;2024-01-06T12:41:54;8.53;;;6.43;;
14348;SDS011;7258;50.376;8.742;2024-01-06T12:43:58;10.07;;;6.50;;
14348;SDS011;7258;50.376;8.742;2024-01-06T12:46:01;9.20;;;6.83;;